Adolph, MN

9:00 AM CDT on March 26, 2017 (GMT -0500)
Windy Hill | | Change Station
Active Advisory: Special Weather Statement

Elev 1303 ft 46.78 °N, 92.25 °W | Updated 3 seconds ago

Overcast
Overcast
31.8 °F
Feels Like 32 °F
N
2.7
Wind Variable Wind from ESE

Today
High -- | Low -- °F
--% Chance of Precip.
Yesterday
High -- | Low -- °F
Precip. -- in
Pressure 30.04 in
Visibility 4.0 miles
Clouds Overcast 400 ft
Windchill 32 °F
Dew Point 32 °F
Humidity 99%
Rainfall 0.00 in
Snow Depth Not available.
6:59 AM 7:30 PM
Waning Crescent, 3% visible
METAR KDLH 261355Z 07006KT 4SM -FZDZ BR OVC004 00/M01 A2997 RMK AO2 RAB25E41FZDZE25B41 SLP170 P0002 I1002 T00001006
Pressure 30.04 in
Visibility 4.0 miles
Clouds Overcast 400 ft
Windchill 32 °F
Dew Point 32 °F
Humidity 99%
Rainfall 0.00 in
Snow Depth Not available.
6:59 AM 7:30 PM
Waning Crescent, 3% visible
METAR KDLH 261355Z 07006KT 4SM -FZDZ BR OVC004 00/M01 A2997 RMK AO2 RAB25E41FZDZE25B41 SLP170 P0002 I1002 T00001006

Get Your Daily Forecast Email!

Thanks for signing up!

Be on the lookout for a verification email in your inbox.

You'll start receiving severe weather alerts in your inbox..

×

10-Day Weather Forecast

Almanac

Astronomy

Mar. 26, 2017 Rise Set
Actual Time
Civil Twilight
Nautical Twilight
Astronomical Twilight
Moon
Length of Visible Light
Length of Day
Tomorrow will be .
, % of the Moon is Illuminated

Today's Extremes

State Highs State Lows

Community

WunderPhotos

Upload Photos

1,962,540 photos uploaded!

WunderBlog® & News

Nearby

Air Quality

  Air Quality AQ Index Pollutant
Not available.

Snow Depth

Station Depth Elevation

Earthquake Activity

City Distance Mag. Time & Date
Minimum magnitude displayed is 2.5.

Earthquake Activity

City Distance Mag. Time & Date
Minimum magnitude displayed is 2.5.

Coastal Water Temperatures

Place Temperature

Stations

Nearby Weather Stations

Station Location Temp. Windchill Dew Point Humidity Wind Precip. Elev Updated Type
                   

Watches & Warnings

Special Weather Statement
Issued: 7:22 AM CDT Mar. 26, 2017 – National Weather Service

... Freezing drizzle and light freezing rain over portions of the
Northland early this morning...

Freezing drizzle and light freezing rain were occurring over
portions of northeast Minnesota, especially Cloquet and Duluth.
Temperatures are a degree or two either side of freezing and some
areas are receiving drizzle or light rain. Motorists should expect
patches of ice on area roads and exercise caution. Slow down and
allow extra stopping distance. Reduce your speed approaching and
passing through curves.


Huyck